sensor_id;sensor_type;location;lat;lon;timestamp;pressure;altitude;pressure_sealevel;temperature
15607;BMP180;7865;50.918;4.510;2023-02-28T00:00:39;102409.00;;;-1.00
15607;BMP180;7865;50.918;4.510;2023-02-28T00:05:41;102412.00;;;-1.00
15607;BMP180;7865;50.918;4.510;2023-02-28T00:10:43;102410.00;;;-1.10
15607;BMP180;7865;50.918;4.510;2023-02-28T00:15:45;102417.00;;;-1.10
15607;BMP180;7865;50.918;4.510;2023-02-28T00:20:47;102414.00;;;-1.10
15607;BMP180;7865;50.918;4.510;2023-02-28T00:25:50;102416.00;;;-1.10
15607;BMP180;7865;50.918;4.510;2023-02-28T00:30:52;102415.00;;;-1.20
15607;BMP180;7865;50.918;4.510;2023-02-28T00:36:02;102416.00;;;-1.20
15607;BMP180;7865;50.918;4.510;2023-02-28T00:41:06;102414.00;;;-1.20
15607;BMP180;7865;50.918;4.510;2023-02-28T00:46:08;102419.00;;;-1.30
15607;BMP180;7865;50.918;4.510;2023-02-28T00:51:10;102416.00;;;-1.30
15607;BMP180;7865;50.918;4.510;2023-02-28T00:56:12;102423.00;;;-1.40
15607;BMP180;7865;50.918;4.510;2023-02-28T01:01:15;102420.00;;;-1.50
15607;BMP180;7865;50.918;4.510;2023-02-28T01:06:18;102430.00;;;-1.60
15607;BMP180;7865;50.918;4.510;2023-02-28T01:11:20;102427.00;;;-1.90
15607;BMP180;7865;50.918;4.510;2023-02-28T01:16:22;102427.00;;;-2.00
15607;BMP180;7865;50.918;4.510;2023-02-28T01:21:24;102444.00;;;-2.20
15607;BMP180;7865;50.918;4.510;2023-02-28T01:26:26;102433.00;;;-2.30
15607;BMP180;7865;50.918;4.510;2023-02-28T01:31:28;102436.00;;;-2.30
15607;BMP180;7865;50.918;4.510;2023-02-28T01:36:31;102432.00;;;-2.30
15607;BMP180;7865;50.918;4.510;2023-02-28T01:41:34;102432.00;;;-2.20
15607;BMP180;7865;50.918;4.510;2023-02-28T01:46:36;102430.00;;;-2.20
15607;BMP180;7865;50.918;4.510;2023-02-28T01:51:46;102428.00;;;-2.10
15607;BMP180;7865;50.918;4.510;2023-02-28T01:56:56;102426.00;;;-2.10
15607;BMP180;7865;50.918;4.510;2023-02-28T02:01:59;102407.00;;;-2.00
15607;BMP180;7865;50.918;4.510;2023-02-28T02:07:02;102412.00;;;-2.00
15607;BMP180;7865;50.918;4.510;2023-02-28T02:12:25;102407.00;;;-2.00
15607;BMP180;7865;50.918;4.510;2023-02-28T02:17:38;102402.00;;;-2.10
15607;BMP180;7865;50.918;4.510;2023-02-28T02:44:02;102391.00;;;-2.50
15607;BMP180;7865;50.918;4.510;2023-02-28T02:49:09;102392.00;;;-2.60
15607;BMP180;7865;50.918;4.510;2023-02-28T02:54:15;102394.00;;;-2.60
15607;BMP180;7865;50.918;4.510;2023-02-28T02:59:21;102383.00;;;-2.70
15607;BMP180;7865;50.918;4.510;2023-02-28T03:04:28;102388.00;;;-2.70
15607;BMP180;7865;50.918;4.510;2023-02-28T03:09:33;102389.00;;;-2.70
15607;BMP180;7865;50.918;4.510;2023-02-28T03:15:01;102397.00;;;-2.80
15607;BMP180;7865;50.918;4.510;2023-02-28T03:20:17;102392.00;;;-2.90
15607;BMP180;7865;50.918;4.510;2023-02-28T03:30:49;102389.00;;;-3.20
15607;BMP180;7865;50.918;4.510;2023-02-28T03:36:05;102386.00;;;-3.20
15607;BMP180;7865;50.918;4.510;2023-02-28T03:41:31;102390.00;;;-3.30
15607;BMP180;7865;50.918;4.510;2023-02-28T03:46:36;102398.00;;;-3.40
15607;BMP180;7865;50.918;4.510;2023-02-28T03:51:40;102408.00;;;-3.40
15607;BMP180;7865;50.918;4.510;2023-02-28T03:57:02;102411.00;;;-3.50
15607;BMP180;7865;50.918;4.510;2023-02-28T04:02:07;102406.00;;;-3.50
15607;BMP180;7865;50.918;4.510;2023-02-28T04:07:10;102400.00;;;-3.50
15607;BMP180;7865;50.918;4.510;2023-02-28T04:12:13;102401.00;;;-3.50
15607;BMP180;7865;50.918;4.510;2023-02-28T04:17:15;102400.00;;;-3.40
15607;BMP180;7865;50.918;4.510;2023-02-28T04:22:17;102397.00;;;-3.30
15607;BMP180;7865;50.918;4.510;2023-02-28T04:27:20;102401.00;;;-3.20
15607;BMP180;7865;50.918;4.510;2023-02-28T04:32:23;102397.00;;;-3.10
15607;BMP180;7865;50.918;4.510;2023-02-28T04:37:24;102402.00;;;-3.00
15607;BMP180;7865;50.918;4.510;2023-02-28T04:42:30;102409.00;;;-3.00
15607;BMP180;7865;50.918;4.510;2023-02-28T04:47:37;102415.00;;;-2.90
15607;BMP180;7865;50.918;4.510;2023-02-28T04:52:38;102419.00;;;-2.70
15607;BMP180;7865;50.918;4.510;2023-02-28T04:57:40;102422.00;;;-2.60
15607;BMP180;7865;50.918;4.510;2023-02-28T05:02:44;102428.00;;;-2.50
15607;BMP180;7865;50.918;4.510;2023-02-28T05:07:45;102425.00;;;-2.30
15607;BMP180;7865;50.918;4.510;2023-02-28T05:12:47;102420.00;;;-2.10
15607;BMP180;7865;50.918;4.510;2023-02-28T05:17:49;102429.00;;;-1.90
15607;BMP180;7865;50.918;4.510;2023-02-28T05:22:52;102419.00;;;-1.80
15607;BMP180;7865;50.918;4.510;2023-02-28T05:27:54;102423.00;;;-1.60
15607;BMP180;7865;50.918;4.510;2023-02-28T05:32:56;102426.00;;;-1.60
15607;BMP180;7865;50.918;4.510;2023-02-28T05:37:58;102428.00;;;-1.50
15607;BMP180;7865;50.918;4.510;2023-02-28T05:43:00;102435.00;;;-1.50
15607;BMP180;7865;50.918;4.510;2023-02-28T05:48:02;102435.00;;;-1.50
15607;BMP180;7865;50.918;4.510;2023-02-28T05:53:04;102427.00;;;-1.50
15607;BMP180;7865;50.918;4.510;2023-02-28T05:58:06;102440.00;;;-1.40
15607;BMP180;7865;50.918;4.510;2023-02-28T06:03:08;102436.00;;;-1.40
15607;BMP180;7865;50.918;4.510;2023-02-28T06:08:09;102440.00;;;-1.20
15607;BMP180;7865;50.918;4.510;2023-02-28T06:13:12;102444.00;;;-1.20
15607;BMP180;7865;50.918;4.510;2023-02-28T06:18:14;102445.00;;;-1.10
15607;BMP180;7865;50.918;4.510;2023-02-28T06:23:16;102452.00;;;-1.10
15607;BMP180;7865;50.918;4.510;2023-02-28T06:28:19;102457.00;;;-1.00
15607;BMP180;7865;50.918;4.510;2023-02-28T06:33:21;102457.00;;;-0.80
15607;BMP180;7865;50.918;4.510;2023-02-28T06:38:23;102455.00;;;-0.70
15607;BMP180;7865;50.918;4.510;2023-02-28T06:43:27;102455.00;;;-0.60
15607;BMP180;7865;50.918;4.510;2023-02-28T06:48:30;102454.00;;;-0.50
15607;BMP180;7865;50.918;4.510;2023-02-28T06:53:33;102473.00;;;-0.30
15607;BMP180;7865;50.918;4.510;2023-02-28T06:58:35;102463.00;;;-0.10
15607;BMP180;7865;50.918;4.510;2023-02-28T07:03:37;102471.00;;;0.20
15607;BMP180;7865;50.918;4.510;2023-02-28T07:08:39;102467.00;;;0.40
15607;BMP180;7865;50.918;4.510;2023-02-28T07:13:42;102467.00;;;0.70
15607;BMP180;7865;50.918;4.510;2023-02-28T07:18:45;102470.00;;;1.00
15607;BMP180;7865;50.918;4.510;2023-02-28T07:23:47;102473.00;;;1.20
15607;BMP180;7865;50.918;4.510;2023-02-28T07:28:49;102466.00;;;1.20
15607;BMP180;7865;50.918;4.510;2023-02-28T07:33:51;102473.00;;;1.20
15607;BMP180;7865;50.918;4.510;2023-02-28T07:38:55;102476.00;;;1.40
15607;BMP180;7865;50.918;4.510;2023-02-28T07:43:57;102482.00;;;1.60
15607;BMP180;7865;50.918;4.510;2023-02-28T07:49:01;102479.00;;;1.80
15607;BMP180;7865;50.918;4.510;2023-02-28T07:54:04;102477.00;;;2.00
15607;BMP180;7865;50.918;4.510;2023-02-28T07:59:06;102475.00;;;2.20
15607;BMP180;7865;50.918;4.510;2023-02-28T08:04:08;102479.00;;;2.40
15607;BMP180;7865;50.918;4.510;2023-02-28T08:09:10;102487.00;;;2.90
15607;BMP180;7865;50.918;4.510;2023-02-28T08:14:13;102480.00;;;3.30
15607;BMP180;7865;50.918;4.510;2023-02-28T08:19:15;102478.00;;;3.60
15607;BMP180;7865;50.918;4.510;2023-02-28T08:24:17;102487.00;;;4.20
15607;BMP180;7865;50.918;4.510;2023-02-28T08:29:19;102494.00;;;4.40
15607;BMP180;7865;50.918;4.510;2023-02-28T08:34:22;102488.00;;;4.60
15607;BMP180;7865;50.918;4.510;2023-02-28T08:39:24;102504.00;;;4.70
15607;BMP180;7865;50.918;4.510;2023-02-28T08:44:26;102490.00;;;5.00
15607;BMP180;7865;50.918;4.510;2023-02-28T08:49:29;102491.00;;;5.20
15607;BMP180;7865;50.918;4.510;2023-02-28T08:54:31;102497.00;;;5.60
15607;BMP180;7865;50.918;4.510;2023-02-28T08:59:34;102497.00;;;5.70
15607;BMP180;7865;50.918;4.510;2023-02-28T09:04:36;102493.00;;;5.80
15607;BMP180;7865;50.918;4.510;2023-02-28T09:09:38;102500.00;;;5.90
15607;BMP180;7865;50.918;4.510;2023-02-28T09:14:54;102492.00;;;5.90
15607;BMP180;7865;50.918;4.510;2023-02-28T09:19:57;102498.00;;;5.90
15607;BMP180;7865;50.918;4.510;2023-02-28T09:24:59;102480.00;;;6.00
15607;BMP180;7865;50.918;4.510;2023-02-28T09:30:00;102471.00;;;6.20
15607;BMP180;7865;50.918;4.510;2023-02-28T09:35:02;102470.00;;;6.60
15607;BMP180;7865;50.918;4.510;2023-02-28T09:40:05;102476.00;;;6.90
15607;BMP180;7865;50.918;4.510;2023-02-28T09:45:22;102473.00;;;7.10
15607;BMP180;7865;50.918;4.510;2023-02-28T09:55:39;102484.00;;;7.50
15607;BMP180;7865;50.918;4.510;2023-02-28T10:00:55;102471.00;;;7.40
15607;BMP180;7865;50.918;4.510;2023-02-28T10:06:14;102475.00;;;7.50
15607;BMP180;7865;50.918;4.510;2023-02-28T10:11:19;102464.00;;;7.60
15607;BMP180;7865;50.918;4.510;2023-02-28T10:16:29;102462.00;;;7.70
15607;BMP180;7865;50.918;4.510;2023-02-28T10:21:41;102461.00;;;7.70
15607;BMP180;7865;50.918;4.510;2023-02-28T10:26:45;102459.00;;;7.80
15607;BMP180;7865;50.918;4.510;2023-02-28T10:31:49;102459.00;;;8.00
15607;BMP180;7865;50.918;4.510;2023-02-28T10:36:51;102449.00;;;8.20
15607;BMP180;7865;50.918;4.510;2023-02-28T10:41:53;102441.00;;;8.60
15607;BMP180;7865;50.918;4.510;2023-02-28T10:46:56;102451.00;;;8.90
15607;BMP180;7865;50.918;4.510;2023-02-28T10:51:59;102443.00;;;9.00
15607;BMP180;7865;50.918;4.510;2023-02-28T10:57:23;102434.00;;;9.00
15607;BMP180;7865;50.918;4.510;2023-02-28T11:02:36;102443.00;;;8.90
15607;BMP180;7865;50.918;4.510;2023-02-28T11:07:51;102429.00;;;8.80
15607;BMP180;7865;50.918;4.510;2023-02-28T11:12:55;102441.00;;;8.50
15607;BMP180;7865;50.918;4.510;2023-02-28T11:23:15;102427.00;;;9.10
15607;BMP180;7865;50.918;4.510;2023-02-28T11:28:31;102422.00;;;9.10
15607;BMP180;7865;50.918;4.510;2023-02-28T11:33:49;102418.00;;;9.30
15607;BMP180;7865;50.918;4.510;2023-02-28T11:38:59;102424.00;;;9.40
15607;BMP180;7865;50.918;4.510;2023-02-28T11:49:55;102409.00;;;9.80
15607;BMP180;7865;50.918;4.510;2023-02-28T11:55:16;102399.00;;;9.70
15607;BMP180;7865;50.918;4.510;2023-02-28T12:00:35;102389.00;;;9.70
15607;BMP180;7865;50.918;4.510;2023-02-28T12:05:48;102388.00;;;9.50
15607;BMP180;7865;50.918;4.510;2023-02-28T12:27:10;102364.00;;;8.70
15607;BMP180;7865;50.918;4.510;2023-02-28T12:32:22;102338.00;;;9.70
15607;BMP180;7865;50.918;4.510;2023-02-28T12:37:37;102346.00;;;9.80
15607;BMP180;7865;50.918;4.510;2023-02-28T12:42:49;102342.00;;;9.90
15607;BMP180;7865;50.918;4.510;2023-02-28T12:48:01;102348.00;;;9.80
15607;BMP180;7865;50.918;4.510;2023-02-28T12:53:33;102337.00;;;9.90
15607;BMP180;7865;50.918;4.510;2023-02-28T12:58:53;102332.00;;;9.80
15607;BMP180;7865;50.918;4.510;2023-02-28T13:04:11;102329.00;;;9.60
15607;BMP180;7865;50.918;4.510;2023-02-28T13:09:16;102329.00;;;9.80
15607;BMP180;7865;50.918;4.510;2023-02-28T13:29:46;102317.00;;;9.50
15607;BMP180;7865;50.918;4.510;2023-02-28T13:39:52;102325.00;;;9.30
15607;BMP180;7865;50.918;4.510;2023-02-28T14:00:39;102311.00;;;10.00
15607;BMP180;7865;50.918;4.510;2023-02-28T14:05:43;102316.00;;;10.40
15607;BMP180;7865;50.918;4.510;2023-02-28T14:10:47;102293.00;;;11.20
15607;BMP180;7865;50.918;4.510;2023-02-28T14:15:56;102277.00;;;11.80
15607;BMP180;7865;50.918;4.510;2023-02-28T14:26:12;102269.00;;;12.70
15607;BMP180;7865;50.918;4.510;2023-02-28T14:31:23;102289.00;;;11.60
15607;BMP180;7865;50.918;4.510;2023-02-28T14:36:35;102271.00;;;10.80
15607;BMP180;7865;50.918;4.510;2023-02-28T14:41:40;102260.00;;;10.90
15607;BMP180;7865;50.918;4.510;2023-02-28T14:46:43;102246.00;;;12.20
15607;BMP180;7865;50.918;4.510;2023-02-28T14:51:49;102272.00;;;11.20
15607;BMP180;7865;50.918;4.510;2023-02-28T14:56:51;102211.00;;;12.70
15607;BMP180;7865;50.918;4.510;2023-02-28T15:02:14;102237.00;;;13.50
15607;BMP180;7865;50.918;4.510;2023-02-28T15:07:16;102246.00;;;12.20
15607;BMP180;7865;50.918;4.510;2023-02-28T15:12:19;102240.00;;;12.30
15607;BMP180;7865;50.918;4.510;2023-02-28T15:17:22;102231.00;;;13.40
15607;BMP180;7865;50.918;4.510;2023-02-28T15:22:36;102250.00;;;11.30
15607;BMP180;7865;50.918;4.510;2023-02-28T15:27:45;102233.00;;;10.30
15607;BMP180;7865;50.918;4.510;2023-02-28T15:38:26;102283.00;;;12.70
15607;BMP180;7865;50.918;4.510;2023-02-28T15:43:30;102298.00;;;8.30
15607;BMP180;7865;50.918;4.510;2023-02-28T15:48:42;102299.00;;;6.90
15607;BMP180;7865;50.918;4.510;2023-02-28T15:53:51;102294.00;;;6.30
15607;BMP180;7865;50.918;4.510;2023-02-28T15:58:56;102300.00;;;6.00
15607;BMP180;7865;50.918;4.510;2023-02-28T16:04:02;102293.00;;;5.90
15607;BMP180;7865;50.918;4.510;2023-02-28T16:09:06;102306.00;;;5.60
15607;BMP180;7865;50.918;4.510;2023-02-28T16:14:36;102291.00;;;5.20
15607;BMP180;7865;50.918;4.510;2023-02-28T16:19:40;102304.00;;;5.00
15607;BMP180;7865;50.918;4.510;2023-02-28T16:24:42;102295.00;;;4.90
15607;BMP180;7865;50.918;4.510;2023-02-28T16:29:45;102300.00;;;4.70
15607;BMP180;7865;50.918;4.510;2023-02-28T16:34:47;102300.00;;;4.60
15607;BMP180;7865;50.918;4.510;2023-02-28T16:39:49;102306.00;;;4.50
15607;BMP180;7865;50.918;4.510;2023-02-28T16:44:53;102316.00;;;4.40
15607;BMP180;7865;50.918;4.510;2023-02-28T16:49:55;102309.00;;;4.30
15607;BMP180;7865;50.918;4.510;2023-02-28T16:54:58;102324.00;;;4.10
15607;BMP180;7865;50.918;4.510;2023-02-28T17:00:03;102323.00;;;3.90
15607;BMP180;7865;50.918;4.510;2023-02-28T17:05:06;102320.00;;;3.80
15607;BMP180;7865;50.918;4.510;2023-02-28T17:10:28;102325.00;;;3.60
15607;BMP180;7865;50.918;4.510;2023-02-28T17:15:31;102326.00;;;3.40
15607;BMP180;7865;50.918;4.510;2023-02-28T17:20:33;102323.00;;;3.20
15607;BMP180;7865;50.918;4.510;2023-02-28T17:25:36;102344.00;;;3.00
15607;BMP180;7865;50.918;4.510;2023-02-28T17:30:38;102347.00;;;2.90
15607;BMP180;7865;50.918;4.510;2023-02-28T17:35:42;102365.00;;;2.70
15607;BMP180;7865;50.918;4.510;2023-02-28T17:40:44;102362.00;;;2.50
15607;BMP180;7865;50.918;4.510;2023-02-28T17:45:46;102365.00;;;2.40
15607;BMP180;7865;50.918;4.510;2023-02-28T17:50:48;102374.00;;;2.30
15607;BMP180;7865;50.918;4.510;2023-02-28T17:55:50;102370.00;;;2.10
15607;BMP180;7865;50.918;4.510;2023-02-28T18:00:52;102381.00;;;2.00
15607;BMP180;7865;50.918;4.510;2023-02-28T18:05:56;102381.00;;;1.90
15607;BMP180;7865;50.918;4.510;2023-02-28T18:10:58;102386.00;;;1.70
15607;BMP180;7865;50.918;4.510;2023-02-28T18:16:00;102381.00;;;1.60
15607;BMP180;7865;50.918;4.510;2023-02-28T18:21:04;102384.00;;;1.40
15607;BMP180;7865;50.918;4.510;2023-02-28T18:26:07;102392.00;;;1.20
15607;BMP180;7865;50.918;4.510;2023-02-28T18:31:11;102391.00;;;1.10
15607;BMP180;7865;50.918;4.510;2023-02-28T18:36:14;102398.00;;;0.90
15607;BMP180;7865;50.918;4.510;2023-02-28T18:41:18;102397.00;;;0.90
15607;BMP180;7865;50.918;4.510;2023-02-28T18:46:23;102395.00;;;1.00
15607;BMP180;7865;50.918;4.510;2023-02-28T18:51:27;102400.00;;;1.00
15607;BMP180;7865;50.918;4.510;2023-02-28T18:56:29;102394.00;;;0.80
15607;BMP180;7865;50.918;4.510;2023-02-28T19:01:32;102401.00;;;0.70
15607;BMP180;7865;50.918;4.510;2023-02-28T19:06:34;102393.00;;;0.60
15607;BMP180;7865;50.918;4.510;2023-02-28T19:11:38;102398.00;;;0.50
15607;BMP180;7865;50.918;4.510;2023-02-28T19:16:41;102401.00;;;0.50
15607;BMP180;7865;50.918;4.510;2023-02-28T19:21:43;102387.00;;;0.40
15607;BMP180;7865;50.918;4.510;2023-02-28T19:26:44;102384.00;;;0.30
15607;BMP180;7865;50.918;4.510;2023-02-28T19:31:46;102386.00;;;0.20
15607;BMP180;7865;50.918;4.510;2023-02-28T19:36:49;102389.00;;;0.10
15607;BMP180;7865;50.918;4.510;2023-02-28T19:41:51;102409.00;;;0.10
15607;BMP180;7865;50.918;4.510;2023-02-28T19:46:53;102406.00;;;0.10
15607;BMP180;7865;50.918;4.510;2023-02-28T19:51:55;102415.00;;;0.20
15607;BMP180;7865;50.918;4.510;2023-02-28T19:56:57;102422.00;;;0.30
15607;BMP180;7865;50.918;4.510;2023-02-28T20:01:59;102422.00;;;0.30
15607;BMP180;7865;50.918;4.510;2023-02-28T20:07:01;102419.00;;;0.20
15607;BMP180;7865;50.918;4.510;2023-02-28T20:12:03;102427.00;;;0.20
15607;BMP180;7865;50.918;4.510;2023-02-28T20:17:09;102429.00;;;0.10
15607;BMP180;7865;50.918;4.510;2023-02-28T20:22:12;102430.00;;;0.10
15607;BMP180;7865;50.918;4.510;2023-02-28T20:27:14;102426.00;;;0.10
15607;BMP180;7865;50.918;4.510;2023-02-28T20:32:16;102431.00;;;0.10
15607;BMP180;7865;50.918;4.510;2023-02-28T20:37:18;102422.00;;;0.10
15607;BMP180;7865;50.918;4.510;2023-02-28T20:42:20;102421.00;;;0.00
15607;BMP180;7865;50.918;4.510;2023-02-28T20:47:22;102416.00;;;0.00
15607;BMP180;7865;50.918;4.510;2023-02-28T20:52:24;102406.00;;;-0.10
15607;BMP180;7865;50.918;4.510;2023-02-28T20:57:28;102422.00;;;-0.20
15607;BMP180;7865;50.918;4.510;2023-02-28T21:02:30;102415.00;;;-0.30
15607;BMP180;7865;50.918;4.510;2023-02-28T21:07:32;102412.00;;;-0.50
15607;BMP180;7865;50.918;4.510;2023-02-28T21:12:34;102427.00;;;-0.60
15607;BMP180;7865;50.918;4.510;2023-02-28T21:17:35;102422.00;;;-0.60
15607;BMP180;7865;50.918;4.510;2023-02-28T21:22:37;102422.00;;;-0.80
15607;BMP180;7865;50.918;4.510;2023-02-28T21:27:40;102432.00;;;-0.90
15607;BMP180;7865;50.918;4.510;2023-02-28T21:32:42;102421.00;;;-1.00
15607;BMP180;7865;50.918;4.510;2023-02-28T21:37:44;102418.00;;;-1.10
15607;BMP180;7865;50.918;4.510;2023-02-28T21:42:47;102419.00;;;-1.20
15607;BMP180;7865;50.918;4.510;2023-02-28T21:47:48;102410.00;;;-1.30
15607;BMP180;7865;50.918;4.510;2023-02-28T21:52:50;102409.00;;;-1.40
15607;BMP180;7865;50.918;4.510;2023-02-28T21:57:52;102412.00;;;-1.40
15607;BMP180;7865;50.918;4.510;2023-02-28T22:02:54;102407.00;;;-1.50
15607;BMP180;7865;50.918;4.510;2023-02-28T22:07:56;102416.00;;;-1.50
15607;BMP180;7865;50.918;4.510;2023-02-28T22:12:58;102420.00;;;-1.50
15607;BMP180;7865;50.918;4.510;2023-02-28T22:18:02;102421.00;;;-1.40
15607;BMP180;7865;50.918;4.510;2023-02-28T22:23:04;102419.00;;;-1.50
15607;BMP180;7865;50.918;4.510;2023-02-28T22:28:06;102431.00;;;-1.50
15607;BMP180;7865;50.918;4.510;2023-02-28T22:33:08;102421.00;;;-1.50
15607;BMP180;7865;50.918;4.510;2023-02-28T22:38:10;102422.00;;;-1.60
15607;BMP180;7865;50.918;4.510;2023-02-28T22:43:12;102416.00;;;-1.60
15607;BMP180;7865;50.918;4.510;2023-02-28T22:48:14;102429.00;;;-1.60
15607;BMP180;7865;50.918;4.510;2023-02-28T22:53:16;102420.00;;;-1.60
15607;BMP180;7865;50.918;4.510;2023-02-28T22:58:18;102408.00;;;-1.70
15607;BMP180;7865;50.918;4.510;2023-02-28T23:03:22;102415.00;;;-1.70
15607;BMP180;7865;50.918;4.510;2023-02-28T23:08:24;102415.00;;;-1.80
15607;BMP180;7865;50.918;4.510;2023-02-28T23:13:26;102425.00;;;-1.80
15607;BMP180;7865;50.918;4.510;2023-02-28T23:18:28;102429.00;;;-1.90
15607;BMP180;7865;50.918;4.510;2023-02-28T23:23:30;102443.00;;;-1.90
15607;BMP180;7865;50.918;4.510;2023-02-28T23:28:32;102436.00;;;-1.90
15607;BMP180;7865;50.918;4.510;2023-02-28T23:33:35;102434.00;;;-2.00
15607;BMP180;7865;50.918;4.510;2023-02-28T23:38:37;102440.00;;;-2.00
15607;BMP180;7865;50.918;4.510;2023-02-28T23:43:40;102442.00;;;-1.90
15607;BMP180;7865;50.918;4.510;2023-02-28T23:48:42;102431.00;;;-1.80
15607;BMP180;7865;50.918;4.510;2023-02-28T23:53:46;102443.00;;;-1.70
15607;BMP180;7865;50.918;4.510;2023-02-28T23:58:48;102437.00;;;-1.80
